Time,TemperatureF,DewpointF,PressureIn,WindDirection,WindDirectionDegrees,WindSpeedMPH,WindSpeedGustMPH,Humidity,HourlyPrecipIn,Conditions,Clouds,dailyrainin,SoftwareType,DateUTC
2013-01-05 00:00:00,68.4,30.2,30.20,North,-999,0.0,0.0,24,0.00,,,-99.99,WeatherLink 5.5,2013-01-05 05:00:00,
2013-01-05 00:05:00,68.1,29.9,30.20,North,0,0.0,3.0,24,0.00,,,-99.99,WeatherLink 5.5,2013-01-05 05:05:00,
2013-01-05 00:15:00,68.0,28.8,30.20,North,0,0.0,3.0,23,0.00,,,-99.99,WeatherLink 5.5,2013-01-05 05:15:00,
2013-01-05 00:20:00,67.9,29.7,30.19,North,-999,0.0,0.0,24,0.00,,,-99.99,WeatherLink 5.5,2013-01-05 05:20:00,
2013-01-05 00:30:00,67.7,29.6,30.19,North,-999,0.0,0.0,24,0.00,,,-99.99,WeatherLink 5.5,2013-01-05 05:30:00,
2013-01-05 00:40:00,67.5,29.4,30.19,North,-999,0.0,0.0,24,0.00,,,-99.99,WeatherLink 5.5,2013-01-05 05:40:00,
2013-01-05 00:50:00,67.4,29.3,30.19,North,0,0.0,3.0,24,0.00,,,-99.99,WeatherLink 5.5,2013-01-05 05:50:00,
2013-01-05 00:55:00,67.3,29.2,30.19,North,-999,0.0,0.0,24,0.00,,,-99.99,WeatherLink 5.5,2013-01-05 05:55:00,
2013-01-05 01:05:00,67.2,29.2,30.19,North,-999,0.0,0.0,24,0.00,,,-99.99,WeatherLink 5.5,2013-01-05 06:05:00,
2013-01-05 01:15:00,67.2,29.2,30.18,North,0,1.0,4.0,24,0.00,,,-99.99,WeatherLink 5.5,2013-01-05 06:15:00,
2013-01-05 01:25:00,67.1,29.1,30.18,North,0,0.0,3.0,24,0.00,,,-99.99,WeatherLink 5.5,2013-01-05 06:25:00,
2013-01-05 01:35:00,67.1,29.1,30.18,North,0,1.0,6.0,24,0.00,,,-99.99,WeatherLink 5.5,2013-01-05 06:35:00,
2013-01-05 01:45:00,67.1,30.1,30.18,North,0,1.0,7.0,25,0.00,,,-99.99,WeatherLink 5.5,2013-01-05 06:45:00,
2013-01-05 01:50:00,67.2,30.2,30.18,North,0,2.0,6.0,25,0.00,,,-99.99,WeatherLink 5.5,2013-01-05 06:50:00,
2013-01-05 02:00:00,62.1,25.8,30.18,North,0,2.0,6.0,25,0.00,,,-99.99,WeatherLink 5.5,2013-01-05 07:00:00,
2013-01-05 02:05:00,60.7,24.6,30.18,North,0,1.0,6.0,25,0.00,,,-99.99,WeatherLink 5.5,2013-01-05 07:05:00,
2013-01-05 02:15:00,64.7,28.0,30.18,North,0,2.0,7.0,25,0.00,,,-99.99,WeatherLink 5.5,2013-01-05 07:15:00,
2013-01-05 02:20:00,67.5,30.4,30.17,North,0,1.0,5.0,25,0.00,,,-99.99,WeatherLink 5.5,2013-01-05 07:20:00,
2013-01-05 02:30:00,67.5,30.4,30.17,North,0,1.0,7.0,25,0.00,,,-99.99,WeatherLink 5.5,2013-01-05 07:30:00,
2013-01-05 02:40:00,67.4,30.3,30.17,North,0,2.0,6.0,25,0.00,,,-99.99,WeatherLink 5.5,2013-01-05 07:40:00,
2013-01-05 02:50:00,67.3,30.2,30.17,North,0,0.0,4.0,25,0.00,,,-99.99,WeatherLink 5.5,2013-01-05 07:50:00,
2013-01-05 02:55:00,67.2,30.2,30.17,North,0,0.0,1.0,25,0.00,,,-99.99,WeatherLink 5.5,2013-01-05 07:55:00,
2013-01-05 03:05:00,67.0,30.0,30.17,North,0,0.0,3.0,25,0.00,,,-99.99,WeatherLink 5.5,2013-01-05 08:05:00,
2013-01-05 03:10:00,67.0,30.0,30.17,North,0,1.0,5.0,25,0.00,,,-99.99,WeatherLink 5.5,2013-01-05 08:10:00,
2013-01-05 03:20:00,67.0,30.0,30.17,North,0,1.0,4.0,25,0.00,,,-99.99,WeatherLink 5.5,2013-01-05 08:20:00,
2013-01-05 03:25:00,67.1,30.1,30.18,North,0,0.0,1.0,25,0.00,,,-99.99,WeatherLink 5.5,2013-01-05 08:25:00,
2013-01-05 03:35:00,67.2,30.2,30.17,North,0,1.0,5.0,25,0.00,,,-99.99,WeatherLink 5.5,2013-01-05 08:35:00,
2013-01-05 03:45:00,67.3,30.2,30.18,North,0,1.0,6.0,25,0.00,,,-99.99,WeatherLink 5.5,2013-01-05 08:45:00,
2013-01-05 03:55:00,67.3,30.2,30.17,North,0,0.0,2.0,25,0.00,,,-99.99,WeatherLink 5.5,2013-01-05 08:55:00,
2013-01-05 04:05:00,67.2,30.2,30.17,North,0,1.0,5.0,25,0.00,,,-99.99,WeatherLink 5.5,2013-01-05 09:05:00,
2013-01-05 04:10:00,67.1,30.1,30.17,North,0,0.0,5.0,25,0.00,,,-99.99,WeatherLink 5.5,2013-01-05 09:10:00,
2013-01-05 04:20:00,67.0,30.0,30.17,North,0,2.0,9.0,25,0.00,,,-99.99,WeatherLink 5.5,2013-01-05 09:20:00,
2013-01-05 04:25:00,67.0,30.0,30.17,North,0,1.0,9.0,25,0.00,,,-99.99,WeatherLink 5.5,2013-01-05 09:25:00,
2013-01-05 04:35:00,67.0,30.0,30.17,North,0,2.0,7.0,25,0.00,,,-99.99,WeatherLink 5.5,2013-01-05 09:35:00,
2013-01-05 04:40:00,67.0,30.0,30.17,North,0,1.0,6.0,25,0.00,,,-99.99,WeatherLink 5.5,2013-01-05 09:40:00,
2013-01-05 04:50:00,66.9,29.9,30.18,North,0,1.0,5.0,25,0.00,,,-99.99,WeatherLink 5.5,2013-01-05 09:50:00,
2013-01-05 04:55:00,66.9,29.9,30.17,North,0,2.0,8.0,25,0.00,,,-99.99,WeatherLink 5.5,2013-01-05 09:55:00,
2013-01-05 05:05:00,66.9,29.9,30.18,NNW,337,2.0,7.0,25,0.00,,,-99.99,WeatherLink 5.5,2013-01-05 10:05:00,
2013-01-05 05:10:00,66.9,29.9,30.17,North,0,3.0,10.0,25,0.00,,,-99.99,WeatherLink 5.5,2013-01-05 10:10:00,
2013-01-05 05:18:00,66.9,29.9,30.18,North,0,1.0,8.0,25,0.00,,,-99.99,WeatherLink 5.5,2013-01-05 10:18:00,
2013-01-05 05:25:00,66.9,29.9,30.18,North,0,4.0,9.0,25,0.00,,,-99.99,WeatherLink 5.5,2013-01-05 10:25:00,
2013-01-05 05:35:00,66.8,29.8,30.18,North,0,3.0,9.0,25,0.00,,,-99.99,WeatherLink 5.5,2013-01-05 10:35:00,
2013-01-05 05:45:00,66.8,29.8,30.17,North,0,1.0,5.0,25,0.00,,,-99.99,WeatherLink 5.5,2013-01-05 10:45:00,
2013-01-05 05:55:00,66.7,30.7,30.18,North,0,1.0,7.0,26,0.00,,,-99.99,WeatherLink 5.5,2013-01-05 10:55:00,
2013-01-05 06:00:00,66.8,30.8,30.18,North,0,1.0,6.0,26,0.00,,,-99.99,WeatherLink 5.5,2013-01-05 11:00:00,
2013-01-05 06:10:00,66.9,30.9,30.18,North,0,2.0,6.0,26,0.00,,,-99.99,WeatherLink 5.5,2013-01-05 11:10:00,
2013-01-05 06:20:00,66.9,30.9,30.18,North,0,1.0,5.0,26,0.00,,,-99.99,WeatherLink 5.5,2013-01-05 11:20:00,
2013-01-05 06:30:00,66.9,30.9,30.18,North,0,1.0,5.0,26,0.00,,,-99.99,WeatherLink 5.5,2013-01-05 11:30:00,
2013-01-05 06:40:00,66.9,30.9,30.19,North,0,1.0,6.0,26,0.00,,,-99.99,WeatherLink 5.5,2013-01-05 11:40:00,
2013-01-05 06:45:00,67.0,31.0,30.18,North,0,0.0,6.0,26,0.00,,,-99.99,WeatherLink 5.5,2013-01-05 11:45:00,
2013-01-05 06:55:00,67.1,31.0,30.19,North,0,1.0,5.0,26,0.00,,,-99.99,WeatherLink 5.5,2013-01-05 11:55:00,
2013-01-05 07:00:00,67.2,31.1,30.19,North,0,1.0,6.0,26,0.00,,,-99.99,WeatherLink 5.5,2013-01-05 12:00:00,
2013-01-05 07:10:00,67.1,31.0,30.19,North,0,0.0,5.0,26,0.00,,,-99.99,WeatherLink 5.5,2013-01-05 12:10:00,
2013-01-05 07:15:00,67.1,31.0,30.19,North,0,1.0,7.0,26,0.00,,,-99.99,WeatherLink 5.5,2013-01-05 12:15:00,
2013-01-05 07:25:00,67.2,31.1,30.20,North,0,1.0,5.0,26,0.00,,,-99.99,WeatherLink 5.5,2013-01-05 12:25:00,
2013-01-05 07:33:00,67.3,31.2,30.20,North,0,1.0,6.0,26,0.00,,,-99.99,WeatherLink 5.5,2013-01-05 12:33:00,
2013-01-05 07:40:00,67.3,31.2,30.21,North,0,1.0,6.0,26,0.00,,,-99.99,WeatherLink 5.5,2013-01-05 12:40:00,
2013-01-05 07:50:00,67.3,31.2,30.21,North,0,0.0,4.0,26,0.00,,,-99.99,WeatherLink 5.5,2013-01-05 12:50:00,
2013-01-05 08:00:00,67.5,31.4,30.21,North,0,0.0,3.0,26,0.00,,,-99.99,WeatherLink 5.5,2013-01-05 13:00:00,
2013-01-05 08:10:00,67.6,31.5,30.22,North,-999,0.0,1.0,26,0.00,,,-99.99,WeatherLink 5.5,2013-01-05 13:10:00,
2013-01-05 08:15:00,67.7,31.6,30.22,North,0,0.0,1.0,26,0.00,,,-99.99,WeatherLink 5.5,2013-01-05 13:15:00,
2013-01-05 08:25:00,67.7,31.6,30.22,North,-999,0.0,0.0,26,0.00,,,-99.99,WeatherLink 5.5,2013-01-05 13:25:00,
2013-01-05 08:35:00,67.8,31.6,30.23,North,0,0.0,3.0,26,0.00,,,-99.99,WeatherLink 5.5,2013-01-05 13:35:00,
2013-01-05 08:45:00,68.0,31.8,30.23,North,0,0.0,2.0,26,0.00,,,-99.99,WeatherLink 5.5,2013-01-05 13:45:00,
2013-01-05 08:55:00,68.1,31.9,30.23,North,0,1.0,4.0,26,0.00,,,-99.99,WeatherLink 5.5,2013-01-05 13:55:00,
2013-01-05 09:00:00,68.3,32.1,30.23,ENE,67,1.0,3.0,26,0.00,,,-99.99,WeatherLink 5.5,2013-01-05 14:00:00,
2013-01-05 09:10:00,68.5,32.2,30.23,North,-999,0.0,0.0,26,0.00,,,-99.99,WeatherLink 5.5,2013-01-05 14:10:00,
2013-01-05 09:15:00,68.6,32.3,30.24,ENE,67,0.0,4.0,26,0.00,,,-99.99,WeatherLink 5.5,2013-01-05 14:15:00,
2013-01-05 09:25:00,68.8,32.5,30.24,North,-999,0.0,0.0,26,0.00,,,-99.99,WeatherLink 5.5,2013-01-05 14:25:00,
2013-01-05 09:35:00,68.9,32.6,30.24,NE,45,1.0,5.0,26,0.00,,,-99.99,WeatherLink 5.5,2013-01-05 14:35:00,
2013-01-05 09:40:00,69.0,32.7,30.24,North,-999,0.0,1.0,26,0.00,,,-99.99,WeatherLink 5.5,2013-01-05 14:40:00,
2013-01-05 09:50:00,69.1,32.7,30.24,NE,45,0.0,4.0,26,0.00,,,-99.99,WeatherLink 5.5,2013-01-05 14:50:00,
2013-01-05 10:00:00,69.5,33.1,30.24,NE,45,0.0,1.0,26,0.00,,,-99.99,WeatherLink 5.5,2013-01-05 15:00:00,
2013-01-05 10:10:00,69.7,33.3,30.23,NE,45,1.0,5.0,26,0.00,,,-99.99,WeatherLink 5.5,2013-01-05 15:10:00,
2013-01-05 10:15:00,70.0,33.5,30.23,NE,45,0.0,3.0,26,0.00,,,-99.99,WeatherLink 5.5,2013-01-05 15:15:00,
2013-01-05 10:25:00,70.4,33.9,30.23,NNE,22,1.0,5.0,26,0.00,,,-99.99,WeatherLink 5.5,2013-01-05 15:25:00,
2013-01-05 10:30:00,70.6,33.0,30.23,North,0,1.0,6.0,25,0.00,,,-99.99,WeatherLink 5.5,2013-01-05 15:30:00,
2013-01-05 10:40:00,70.9,33.3,30.23,North,0,1.0,5.0,25,0.00,,,-99.99,WeatherLink 5.5,2013-01-05 15:40:00,
2013-01-05 10:50:00,71.1,33.5,30.23,North,-999,0.0,0.0,25,0.00,,,-99.99,WeatherLink 5.5,2013-01-05 15:50:00,
2013-01-05 11:00:00,71.4,33.7,30.23,North,0,0.0,1.0,25,0.00,,,-99.99,WeatherLink 5.5,2013-01-05 16:00:00,
2013-01-05 11:10:00,71.8,34.1,30.23,North,-999,0.0,0.0,25,0.00,,,-99.99,WeatherLink 5.5,2013-01-05 16:10:00,
2013-01-05 11:20:00,72.3,34.5,30.22,North,-999,0.0,0.0,25,0.00,,,-99.99,WeatherLink 5.5,2013-01-05 16:20:00,
2013-01-05 11:30:00,72.4,34.6,30.22,North,0,0.0,3.0,25,0.00,,,-99.99,WeatherLink 5.5,2013-01-05 16:30:00,
2013-01-05 11:40:00,72.8,34.9,30.22,North,0,1.0,5.0,25,0.00,,,-99.99,WeatherLink 5.5,2013-01-05 16:40:00,
2013-01-05 11:45:00,72.6,34.7,30.22,North,0,2.0,5.0,25,0.00,,,-99.99,WeatherLink 5.5,2013-01-05 16:45:00,
2013-01-05 11:55:00,72.1,34.3,30.22,NNE,22,1.0,7.0,25,0.02,,,-99.99,WeatherLink 5.5,2013-01-05 16:55:00,
2013-01-05 12:00:00,71.8,35.0,30.22,NNE,22,2.0,8.0,26,0.04,,,-99.99,WeatherLink 5.5,2013-01-05 17:00:00,
2013-01-05 12:10:00,71.2,34.5,30.21,NNE,22,2.0,8.0,26,0.08,,,-99.99,WeatherLink 5.5,2013-01-05 17:10:00,
2013-01-05 12:15:00,71.0,34.4,30.21,NNE,22,1.0,6.0,26,0.08,,,-99.99,WeatherLink 5.5,2013-01-05 17:15:00,
2013-01-05 12:25:00,62.1,27.7,30.20,NNE,22,1.0,6.0,27,0.08,,,-99.99,WeatherLink 5.5,2013-01-05 17:25:00,
2013-01-05 12:30:00,59.7,25.6,30.20,NNE,22,1.0,4.0,27,0.08,,,-99.99,WeatherLink 5.5,2013-01-05 17:30:00,
2013-01-05 12:40:00,59.1,25.1,30.20,NNE,22,1.0,6.0,27,0.08,,,-99.99,WeatherLink 5.5,2013-01-05 17:40:00,
2013-01-05 12:45:00,59.3,25.3,30.19,NNE,22,4.0,10.0,27,0.09,,,-99.99,WeatherLink 5.5,2013-01-05 17:45:00,
2013-01-05 12:55:00,62.6,28.1,30.18,North,0,4.0,8.0,27,0.07,,,-99.99,WeatherLink 5.5,2013-01-05 17:55:00,
2013-01-05 13:00:00,61.4,27.1,30.18,North,0,3.0,7.0,27,0.06,,,-99.99,WeatherLink 5.5,2013-01-05 18:00:00,
2013-01-05 13:10:00,60.8,26.6,30.18,North,0,2.0,7.0,27,0.02,,,-99.99,WeatherLink 5.5,2013-01-05 18:10:00,
2013-01-05 13:15:00,60.6,26.4,30.18,North,0,1.0,5.0,27,0.02,,,-99.99,WeatherLink 5.5,2013-01-05 18:15:00,
2013-01-05 13:25:00,59.9,25.8,30.17,North,0,0.0,1.0,27,0.02,,,-99.99,WeatherLink 5.5,2013-01-05 18:25:00,
2013-01-05 13:30:00,59.8,25.7,30.17,North,0,0.0,3.0,27,0.02,,,-99.99,WeatherLink 5.5,2013-01-05 18:30:00,
2013-01-05 13:40:00,59.7,25.6,30.17,North,-999,0.0,0.0,27,0.02,,,-99.99,WeatherLink 5.5,2013-01-05 18:40:00,
2013-01-05 13:45:00,59.6,25.5,30.17,North,-999,0.0,1.0,27,0.01,,,-99.99,WeatherLink 5.5,2013-01-05 18:45:00,
2013-01-05 13:55:00,59.3,26.2,30.16,North,0,1.0,7.0,28,0.01,,,-99.99,WeatherLink 5.5,2013-01-05 18:55:00,
2013-01-05 14:00:00,59.2,26.1,30.16,North,0,2.0,8.0,28,0.00,,,-99.99,WeatherLink 5.5,2013-01-05 19:00:00,
2013-01-05 14:10:00,59.3,26.2,30.15,North,0,1.0,7.0,28,0.00,,,-99.99,WeatherLink 5.5,2013-01-05 19:10:00,
2013-01-05 14:15:00,61.3,27.9,30.16,North,0,1.0,6.0,28,0.00,,,-99.99,WeatherLink 5.5,2013-01-05 19:15:00,
2013-01-05 14:25:00,63.0,29.4,30.16,North,0,2.0,6.0,28,0.00,,,-99.99,WeatherLink 5.5,2013-01-05 19:25:00,
2013-01-05 14:35:00,62.0,27.6,30.15,North,0,2.0,6.0,27,0.00,,,-99.99,WeatherLink 5.5,2013-01-05 19:35:00,
2013-01-05 14:45:00,61.4,27.1,30.15,North,0,0.0,5.0,27,0.00,,,-99.99,WeatherLink 5.5,2013-01-05 19:45:00,
2013-01-05 14:50:00,61.3,27.0,30.15,North,0,1.0,6.0,27,0.00,,,-99.99,WeatherLink 5.5,2013-01-05 19:50:00,
2013-01-05 15:00:00,60.8,26.6,30.15,North,0,1.0,8.0,27,0.00,,,-99.99,WeatherLink 5.5,2013-01-05 20:00:00,
2013-01-05 15:10:00,60.9,26.7,30.15,North,0,1.0,7.0,27,0.00,,,-99.99,WeatherLink 5.5,2013-01-05 20:10:00,
2013-01-05 15:15:00,60.9,26.7,30.15,North,0,1.0,5.0,27,0.00,,,-99.99,WeatherLink 5.5,2013-01-05 20:15:00,
2013-01-05 15:25:00,63.2,28.6,30.15,North,0,0.0,1.0,27,0.00,,,-99.99,WeatherLink 5.5,2013-01-05 20:25:00,
2013-01-05 15:35:00,66.2,30.3,30.15,North,0,0.0,4.0,26,0.00,,,-99.99,WeatherLink 5.5,2013-01-05 20:35:00,
2013-01-05 15:45:00,66.0,30.1,30.15,North,0,0.0,4.0,26,0.00,,,-99.99,WeatherLink 5.5,2013-01-05 20:45:00,
2013-01-05 15:50:00,66.0,30.1,30.15,North,0,1.0,4.0,26,0.00,,,-99.99,WeatherLink 5.5,2013-01-05 20:50:00,
2013-01-05 16:00:00,65.6,28.8,30.15,North,0,1.0,4.0,25,0.00,,,-99.99,WeatherLink 5.5,2013-01-05 21:00:00,
2013-01-05 16:05:00,65.6,28.8,30.15,North,0,1.0,5.0,25,0.00,,,-99.99,WeatherLink 5.5,2013-01-05 21:05:00,
2013-01-05 16:15:00,65.4,28.6,30.15,North,0,0.0,1.0,25,0.00,,,-99.99,WeatherLink 5.5,2013-01-05 21:15:00,
2013-01-05 16:20:00,65.3,28.5,30.15,North,0,0.0,3.0,25,0.00,,,-99.99,WeatherLink 5.5,2013-01-05 21:20:00,
2013-01-05 16:30:00,65.3,27.5,30.15,North,0,0.0,4.0,24,0.00,,,-99.99,WeatherLink 5.5,2013-01-05 21:30:00,
2013-01-05 16:40:00,65.2,27.5,30.15,North,-999,0.0,1.0,24,0.00,,,-99.99,WeatherLink 5.5,2013-01-05 21:40:00,
2013-01-05 16:50:00,65.1,27.4,30.15,North,0,0.0,1.0,24,0.00,,,-99.99,WeatherLink 5.5,2013-01-05 21:50:00,
2013-01-05 16:55:00,65.2,27.5,30.14,North,-999,0.0,0.0,24,0.00,,,-99.99,WeatherLink 5.5,2013-01-05 21:55:00,
2013-01-05 17:05:00,65.2,27.5,30.15,North,0,0.0,1.0,24,0.00,,,-99.99,WeatherLink 5.5,2013-01-05 22:05:00,
2013-01-05 17:10:00,65.2,27.5,30.15,North,0,0.0,1.0,24,0.00,,,-99.99,WeatherLink 5.5,2013-01-05 22:10:00,
2013-01-05 17:20:00,65.0,27.3,30.15,North,-999,0.0,0.0,24,0.00,,,-99.99,WeatherLink 5.5,2013-01-05 22:20:00,
2013-01-05 17:30:00,66.7,28.7,30.15,North,0,0.0,1.0,24,0.00,,,-99.99,WeatherLink 5.5,2013-01-05 22:30:00,
2013-01-05 17:40:00,66.2,28.3,30.15,North,-999,0.0,0.0,24,0.00,,,-99.99,WeatherLink 5.5,2013-01-05 22:40:00,
2013-01-05 17:45:00,65.9,28.1,30.15,North,-999,0.0,0.0,24,0.00,,,-99.99,WeatherLink 5.5,2013-01-05 22:45:00,
2013-01-05 17:55:00,65.0,27.3,30.16,North,-999,0.0,0.0,24,0.00,,,-99.99,WeatherLink 5.5,2013-01-05 22:55:00,
2013-01-05 18:05:00,64.1,27.5,30.17,North,-999,0.0,0.0,25,0.00,,,-99.99,WeatherLink 5.5,2013-01-05 23:05:00,
2013-01-05 18:15:00,63.5,27.0,30.17,North,-999,0.0,0.0,25,0.00,,,-99.99,WeatherLink 5.5,2013-01-05 23:15:00,
2013-01-05 18:25:00,62.9,26.5,30.17,North,-999,0.0,0.0,25,0.00,,,-99.99,WeatherLink 5.5,2013-01-05 23:25:00,
2013-01-05 18:30:00,62.6,26.2,30.17,North,-999,0.0,0.0,25,0.00,,,-99.99,WeatherLink 5.5,2013-01-05 23:30:00,
2013-01-05 18:40:00,62.4,26.1,30.17,North,-999,0.0,0.0,25,0.00,,,-99.99,WeatherLink 5.5,2013-01-05 23:40:00,
2013-01-05 18:50:00,62.5,27.1,30.17,North,-999,0.0,0.0,26,0.00,,,-99.99,WeatherLink 5.5,2013-01-05 23:50:00,
2013-01-05 18:55:00,63.1,27.6,30.17,North,-999,0.0,0.0,26,0.00,,,-99.99,WeatherLink 5.5,2013-01-05 23:55:00,
2013-01-05 19:05:00,62.6,27.2,30.18,North,-999,0.0,0.0,26,0.00,,,-99.99,WeatherLink 5.5,2013-01-06 00:05:00,
2013-01-05 19:18:00,62.5,27.1,30.18,North,-999,0.0,0.0,26,0.00,,,-99.99,WeatherLink 5.5,2013-01-06 00:18:00,
2013-01-05 19:25:00,62.3,26.9,30.18,North,-999,0.0,0.0,26,0.00,,,-99.99,WeatherLink 5.5,2013-01-06 00:25:00,
2013-01-05 19:30:00,62.1,26.8,30.18,North,-999,0.0,0.0,26,0.00,,,-99.99,WeatherLink 5.5,2013-01-06 00:30:00,
2013-01-05 19:40:00,61.8,26.5,30.19,North,-999,0.0,0.0,26,0.00,,,-99.99,WeatherLink 5.5,2013-01-06 00:40:00,
2013-01-05 19:45:00,61.8,27.4,30.19,North,-999,0.0,0.0,27,0.00,,,-99.99,WeatherLink 5.5,2013-01-06 00:45:00,
2013-01-05 19:55:00,61.9,27.5,30.19,North,-999,0.0,0.0,27,0.00,,,-99.99,WeatherLink 5.5,2013-01-06 00:55:00,
2013-01-05 20:00:00,61.7,27.3,30.19,North,-999,0.0,0.0,27,0.00,,,-99.99,WeatherLink 5.5,2013-01-06 01:00:00,
2013-01-05 20:10:00,61.4,27.1,30.19,North,-999,0.0,0.0,27,0.00,,,-99.99,WeatherLink 5.5,2013-01-06 01:10:00,
2013-01-05 20:15:00,61.1,26.8,30.20,North,-999,0.0,0.0,27,0.00,,,-99.99,WeatherLink 5.5,2013-01-06 01:15:00,
2013-01-05 20:25:00,60.8,26.6,30.20,North,-999,0.0,0.0,27,0.00,,,-99.99,WeatherLink 5.5,2013-01-06 01:25:00,
2013-01-05 20:30:00,60.6,26.4,30.20,North,-999,0.0,0.0,27,0.00,,,-99.99,WeatherLink 5.5,2013-01-06 01:30:00,